Terminal Aerodrome Forecast
Issued by NWS Blacksburg, VA

Current Version | Previous Version | Graphics & Text | Print | Product List | Glossary On
Versions: 1 2 3 4 5 6 7 8 9 10 11 12 13 14 15 16
000
FTUS41 KRNK 151513 AAB
TAFBLF
TAF AMD
KBLF 151513Z 1515/1612 26005KT 6SM -SHRA FEW015 SCT025 OVC050
      TEMPO 1515/1517 2SM SHRA OVC015
     FM151700 29006KT P6SM VCSH OVC015
     FM152300 31004KT P6SM SCT015 BKN050
     FM160300 28003KT 2SM BR OVC002=

USA.gov is the U.S. government's official web portal to all federal, state and local government web resources and services.